Time;durP1;ratioP1;P1;durP2;ratioP2;P2;SDS_P1;SDS_P2;PMS_P1;PMS_P2;Temp;Humidity;BMP_temperature;BMP_pressure;BME280_temperature;BME280_humidity;BME280_pressure;Samples;Min_cycle;Max_cycle;Signal;HPM_P1;HPM_P2
2022/11/06 00:00:34;;;;;;;11.27;4.53;;;9.10;99.90;;;;;;5014877;28;20029;-95
2022/11/06 00:03:00;;;;;;;10.70;3.53;;;9.10;99.90;;;;;;5015001;28;20030;-94
2022/11/06 00:08:11;;;;;;;7.72;3.42;;;9.10;99.90;;;;;;5023646;28;20040;-96
2022/11/06 00:10:38;;;;;;;10.27;4.45;;;9.10;99.90;;;;;;5025126;28;20057;-96
2022/11/06 00:13:04;;;;;;;12.75;4.35;;;9.10;99.90;;;;;;5021929;28;20177;-95
2022/11/06 00:15:30;;;;;;;5.60;3.38;;;9.10;99.90;;;;;;5020866;28;20030;-95
2022/11/06 00:17:56;;;;;;;7.90;3.30;;;9.10;99.90;;;;;;5016460;28;20118;-94
2022/11/06 00:20:22;;;;;;;11.77;3.90;;;9.20;99.90;;;;;;5015733;28;20459;-96
2022/11/06 00:22:51;;;;;;;7.50;3.17;;;9.20;99.90;;;;;;5009983;28;20030;-94
2022/11/06 00:25:17;;;;;;;10.57;3.33;;;9.20;99.90;;;;;;5017475;28;20053;-96
2022/11/06 00:27:43;;;;;;;9.63;3.10;;;9.20;99.90;;;;;;5017897;28;20036;-94
2022/11/06 00:30:10;;;;;;;10.38;3.42;;;9.30;99.90;;;;;;5017760;28;20076;-95
2022/11/06 00:32:36;;;;;;;8.32;3.40;;;9.30;99.90;;;;;;5020802;28;20026;-96
2022/11/06 00:35:03;;;;;;;7.65;3.05;;;9.30;99.90;;;;;;5013437;28;20121;-95
2022/11/06 00:37:28;;;;;;;7.88;3.08;;;9.20;99.90;;;;;;5016923;28;20030;-94
2022/11/06 00:39:54;;;;;;;11.63;3.20;;;9.30;99.90;;;;;;5017716;28;20081;-96
2022/11/06 00:42:20;;;;;;;8.82;3.17;;;9.20;99.90;;;;;;5018899;28;20025;-93
2022/11/06 00:44:45;;;;;;;9.52;2.92;;;9.20;99.90;;;;;;5018361;28;20030;-95
2022/11/06 00:47:11;;;;;;;11.18;2.85;;;9.20;99.90;;;;;;5018468;28;20025;-95
2022/11/06 00:49:38;;;;;;;6.38;2.88;;;9.10;99.90;;;;;;5017116;28;20149;-95
2022/11/06 00:52:03;;;;;;;6.88;2.72;;;9.20;99.90;;;;;;5015251;28;20092;-95
2022/11/06 00:54:29;;;;;;;7.63;3.15;;;9.20;99.90;;;;;;5010791;28;20038;-93
2022/11/06 00:56:55;;;;;;;5.38;2.75;;;9.10;99.90;;;;;;5014271;28;20030;-95
2022/11/06 00:59:21;;;;;;;8.40;2.38;;;9.10;99.90;;;;;;5009167;28;20030;-96
2022/11/06 01:01:46;;;;;;;6.82;2.53;;;9.10;99.90;;;;;;5012030;28;20022;-96
2022/11/06 01:04:20;;;;;;;9.77;2.47;;;9.10;99.90;;;;;;5013732;28;20052;-96
2022/11/06 01:06:51;;;;;;;9.55;2.55;;;9.10;99.90;;;;;;5008610;28;20124;-95
2022/11/06 01:09:20;;;;;;;6.60;2.10;;;9.10;99.90;;;;;;5016909;28;20065;-96
2022/11/06 01:11:49;;;;;;;11.50;2.50;;;9.10;99.90;;;;;;5017514;28;20032;-94
2022/11/06 01:14:16;;;;;;;7.13;2.53;;;9.00;99.90;;;;;;5016203;28;20021;-95
2022/11/06 01:16:42;;;;;;;9.15;2.05;;;9.00;99.90;;;;;;5030214;28;20045;-95
2022/11/06 01:19:13;;;;;;;11.65;2.63;;;8.90;99.90;;;;;;5010985;28;20026;-94
2022/11/06 01:21:41;;;;;;;6.70;2.45;;;9.00;99.90;;;;;;5002188;28;20046;-94
2022/11/06 01:24:12;;;;;;;8.25;2.67;;;8.90;99.90;;;;;;5015609;28;20038;-95
2022/11/06 01:26:41;;;;;;;8.60;1.88;;;8.90;99.90;;;;;;5016489;28;20113;-95
2022/11/06 01:29:11;;;;;;;8.38;3.05;;;8.90;99.90;;;;;;5013730;28;20236;-95
2022/11/06 01:31:37;;;;;;;6.40;1.73;;;9.00;99.90;;;;;;5015793;28;20263;-94
2022/11/06 01:34:04;;;;;;;11.88;2.55;;;8.90;99.90;;;;;;5015155;28;20041;-95
2022/11/06 01:36:30;;;;;;;7.65;1.65;;;8.90;99.90;;;;;;5015951;28;20049;-95
2022/11/06 01:39:00;;;;;;;5.45;1.60;;;8.90;99.90;;;;;;5014736;28;20029;-96
2022/11/06 01:41:45;;;;;;;5.82;2.08;;;8.90;99.90;;;;;;5011456;28;20018;-95
2022/11/06 01:44:31;;;;;;;11.38;2.03;;;8.80;99.90;;;;;;5002264;28;20041;-96
2022/11/06 01:46:58;;;;;;;8.50;2.10;;;8.90;99.90;;;;;;5006219;28;20030;-95
2022/11/06 01:49:26;;;;;;;7.07;2.10;;;8.80;99.90;;;;;;5014544;28;20042;-95
2022/11/06 01:51:56;;;;;;;6.22;1.83;;;8.80;99.90;;;;;;5016206;28;20025;-94
2022/11/06 01:54:26;;;;;;;11.00;2.00;;;8.90;99.90;;;;;;5015245;28;20028;-96
2022/11/06 01:56:55;;;;;;;7.07;1.80;;;8.90;99.90;;;;;;5009582;28;20479;-94
2022/11/06 01:59:23;;;;;;;8.25;1.80;;;8.90;99.90;;;;;;5013504;28;20030;-94
2022/11/06 02:01:50;;;;;;;6.05;1.90;;;9.00;99.90;;;;;;5005354;28;20031;-94
2022/11/06 02:04:18;;;;;;;6.95;1.48;;;9.00;99.90;;;;;;5006840;28;20022;-96
2022/11/06 02:06:45;;;;;;;13.95;1.63;;;9.00;99.90;;;;;;5012126;28;20054;-94
2022/11/06 02:09:11;;;;;;;9.95;2.35;;;9.10;99.90;;;;;;5022834;28;20053;-96
2022/11/06 02:11:39;;;;;;;9.90;1.90;;;9.10;99.90;;;;;;5003641;28;20027;-96
2022/11/06 02:14:43;;;;;;;9.52;2.05;;;9.10;99.90;;;;;;5023284;28;20068;-95
2022/11/06 02:17:40;;;;;;;7.72;1.50;;;9.20;99.90;;;;;;5014599;28;20026;-94
2022/11/06 02:20:09;;;;;;;5.78;1.92;;;9.20;99.90;;;;;;4980774;28;20057;-95
2022/11/06 02:23:12;;;;;;;8.60;1.77;;;9.20;99.90;;;;;;5015760;28;20025;-96
2022/11/06 02:25:46;;;;;;;7.32;1.85;;;9.20;99.90;;;;;;5030202;28;20033;-95
2022/11/06 02:28:23;;;;;;;7.05;1.55;;;9.20;99.90;;;;;;5014583;28;20072;-95
2022/11/06 02:30:50;;;;;;;7.72;1.77;;;9.30;99.90;;;;;;5010799;28;20045;-96
2022/11/06 02:33:21;;;;;;;4.57;2.00;;;9.20;99.90;;;;;;5014892;28;20037;-95
2022/11/06 02:35:52;;;;;;;7.88;1.40;;;9.30;99.90;;;;;;5015052;28;20057;-95
2022/11/06 02:38:25;;;;;;;5.55;1.38;;;9.30;99.90;;;;;;5014848;28;20502;-95
2022/11/06 02:41:01;;;;;;;6.82;1.38;;;9.30;99.90;;;;;;5015858;28;20508;-95
2022/11/06 02:43:39;;;;;;;9.80;1.42;;;9.40;99.90;;;;;;5010228;28;20631;-95
2022/11/06 02:46:17;;;;;;;9.00;1.50;;;9.40;99.90;;;;;;5007376;28;20029;-96
2022/11/06 02:48:49;;;;;;;6.35;1.00;;;9.40;99.90;;;;;;5015422;28;20030;-96
2022/11/06 02:51:17;;;;;;;;;;;9.40;99.90;;;;;;5015223;28;20033;-96
2022/11/06 02:53:45;;;;;;;6.00;1.60;;;9.40;99.90;;;;;;5015019;28;19909;-95
2022/11/06 02:56:17;;;;;;;10.95;1.20;;;9.40;99.90;;;;;;5007893;28;20022;-95
2022/11/06 02:58:51;;;;;;;6.97;1.23;;;9.40;99.90;;;;;;5013038;28;20430;-95
2022/11/06 03:01:49;;;;;;;5.50;0.90;;;9.40;99.90;;;;;;5031825;28;20116;-95
2022/11/06 03:04:21;;;;;;;8.63;1.88;;;9.40;99.90;;;;;;5001472;28;20042;-96
2022/11/06 03:07:10;;;;;;;6.53;1.08;;;9.40;99.90;;;;;;5016116;28;20049;-96
2022/11/06 03:09:36;;;;;;;7.05;1.20;;;9.50;99.90;;;;;;5012730;28;20044;-95
2022/11/06 03:12:38;;;;;;;8.07;1.40;;;9.50;99.90;;;;;;5003884;28;20053;-96
2022/11/06 03:15:26;;;;;;;6.45;1.20;;;9.50;99.90;;;;;;5013077;28;20504;-94
2022/11/06 03:18:05;;;;;;;5.22;1.10;;;9.50;99.90;;;;;;5019564;28;20052;-95
2022/11/06 03:20:54;;;;;;;7.70;1.40;;;9.50;99.90;;;;;;5015898;28;20022;-96
2022/11/06 03:23:25;;;;;;;8.30;1.40;;;9.60;99.90;;;;;;5015962;28;20069;-95
2022/11/06 03:26:03;;;;;;;7.97;1.10;;;9.60;99.90;;;;;;5010364;28;20017;-95
2022/11/06 03:28:42;;;;;;;5.78;1.05;;;9.60;99.90;;;;;;5015744;28;20022;-96
2022/11/06 03:31:13;;;;;;;6.47;1.10;;;9.60;99.90;;;;;;5019375;28;20065;-96
2022/11/06 03:34:02;;;;;;;9.93;1.25;;;9.60;99.90;;;;;;5003435;28;20032;-96
2022/11/06 03:36:40;;;;;;;7.20;0.82;;;9.70;99.90;;;;;;5014667;28;20490;-94
2022/11/06 03:39:14;;;;;;;6.32;1.08;;;9.70;99.90;;;;;;5011166;28;20049;-95
2022/11/06 03:41:52;;;;;;;5.85;1.05;;;9.70;99.90;;;;;;5011545;28;20022;-95
2022/11/06 03:44:23;;;;;;;5.28;1.00;;;9.70;99.90;;;;;;5026255;28;20041;-95
2022/11/06 03:47:01;;;;;;;5.72;1.00;;;9.70;99.90;;;;;;5009365;28;20030;-95
2022/11/06 03:49:35;;;;;;;5.93;1.05;;;9.70;99.90;;;;;;5017897;28;20058;-94
2022/11/06 03:52:13;;;;;;;4.70;1.20;;;9.70;99.90;;;;;;5018389;28;20402;-94
2022/11/06 03:54:47;;;;;;;11.20;1.42;;;9.80;99.90;;;;;;5019140;28;20036;-96
2022/11/06 03:57:19;;;;;;;3.42;1.08;;;9.70;99.90;;;;;;5021111;28;20041;-95
2022/11/06 03:59:54;;;;;;;8.27;1.20;;;9.80;99.90;;;;;;5017887;28;20033;-95
2022/11/06 04:02:22;;;;;;;9.02;1.13;;;9.80;99.90;;;;;;5017885;28;20490;-95
2022/11/06 04:04:57;;;;;;;8.77;1.08;;;9.80;99.90;;;;;;5018205;28;20033;-96
2022/11/06 04:07:35;;;;;;;5.53;0.70;;;9.80;99.90;;;;;;5017630;28;20033;-94
2022/11/06 04:15:53;;;;;;;4.32;0.70;;;9.90;99.90;;;;;;4964578;29;20053;-96
2022/11/06 04:18:19;;;;;;;8.82;1.17;;;9.80;99.90;;;;;;5012306;28;20038;-95
2022/11/06 04:27:40;;;;;;;5.40;0.70;;;9.80;99.90;;;;;;5010110;28;20041;-95
2022/11/06 04:30:25;;;;;;;5.25;0.90;;;9.90;99.90;;;;;;4987133;28;20042;-95
2022/11/06 04:33:15;;;;;;;6.68;0.70;;;9.90;99.90;;;;;;5020048;28;20034;-95
2022/11/06 04:36:00;;;;;;;5.00;1.05;;;9.90;99.90;;;;;;5023859;28;20026;-96
2022/11/06 04:38:40;;;;;;;8.70;1.08;;;9.90;99.90;;;;;;5015728;28;20026;-95
2022/11/06 04:41:24;;;;;;;5.78;0.95;;;9.80;99.90;;;;;;5027366;28;20057;-96
2022/11/06 04:43:56;;;;;;;3.83;0.80;;;9.80;99.90;;;;;;5015207;28;20026;-96
2022/11/06 04:46:42;;;;;;;9.95;1.10;;;9.90;99.90;;;;;;5021604;28;20076;-96
2022/11/06 04:49:10;;;;;;;3.53;0.90;;;9.80;99.90;;;;;;5008721;28;20061;-96
2022/11/06 04:51:41;;;;;;;7.43;1.02;;;9.70;99.90;;;;;;5020303;28;20018;-95
2022/11/06 04:54:09;;;;;;;5.82;0.90;;;9.70;99.90;;;;;;5019943;28;20076;-95
2022/11/06 04:56:36;;;;;;;10.73;1.00;;;9.70;99.90;;;;;;5021074;28;20029;-96
2022/11/06 04:59:04;;;;;;;4.28;0.80;;;9.60;99.90;;;;;;5018954;28;20390;-95
2022/11/06 05:01:30;;;;;;;7.05;1.00;;;9.60;99.90;;;;;;5018507;28;20037;-94
2022/11/06 05:03:56;;;;;;;4.93;0.90;;;9.60;99.90;;;;;;5036785;28;20026;-95
2022/11/06 05:06:22;;;;;;;8.38;1.02;;;9.60;99.90;;;;;;5017282;28;20482;-95
2022/11/06 05:08:48;;;;;;;6.72;1.00;;;9.60;99.90;;;;;;5014602;28;20018;-96
2022/11/06 05:11:14;;;;;;;5.43;1.08;;;9.60;99.90;;;;;;5001495;28;20114;-95
2022/11/06 05:13:39;;;;;;;8.43;1.23;;;9.50;99.90;;;;;;5019551;28;20033;-96
2022/11/06 05:16:05;;;;;;;7.70;1.00;;;9.50;99.90;;;;;;5024917;28;20472;-96
2022/11/06 05:18:31;;;;;;;11.20;1.20;;;9.50;99.90;;;;;;5022882;28;20022;-96
2022/11/06 05:23:46;;;;;;;6.18;0.82;;;9.40;99.90;;;;;;5024274;28;20151;-96
2022/11/06 05:26:12;;;;;;;10.88;1.10;;;9.30;99.90;;;;;;5023153;28;20057;-95
2022/11/06 05:28:38;;;;;;;6.55;1.08;;;9.30;99.90;;;;;;5025772;28;20040;-95
2022/11/06 05:31:04;;;;;;;7.78;1.00;;;9.20;99.90;;;;;;5039448;28;20065;-96
2022/11/06 05:33:30;;;;;;;4.68;0.85;;;9.20;99.90;;;;;;5045762;28;20029;-95
2022/11/06 05:36:03;;;;;;;4.82;0.98;;;9.20;99.90;;;;;;5027058;28;20041;-95
2022/11/06 05:38:30;;;;;;;6.75;1.10;;;9.20;99.90;;;;;;5021278;28;20022;-96
2022/11/06 05:40:56;;;;;;;7.97;0.90;;;9.20;99.90;;;;;;5024086;28;20026;-95
2022/11/06 05:43:22;;;;;;;6.38;0.88;;;9.30;99.90;;;;;;5027756;28;20120;-96
2022/11/06 05:45:48;;;;;;;9.00;1.27;;;9.40;99.90;;;;;;5025566;28;20022;-95
2022/11/06 05:48:16;;;;;;;6.18;1.15;;;9.40;99.90;;;;;;5044840;28;20072;-96
2022/11/06 05:50:42;;;;;;;7.07;0.95;;;9.50;99.90;;;;;;5028591;28;20057;-95
2022/11/06 05:53:08;;;;;;;5.75;1.92;;;9.50;99.90;;;;;;5025517;28;20036;-96
2022/11/06 05:55:34;;;;;;;5.53;0.90;;;9.60;99.90;;;;;;5028871;28;20056;-95
2022/11/06 05:58:02;;;;;;;4.85;1.00;;;9.60;99.90;;;;;;5042729;28;20034;-96
2022/11/06 06:00:28;;;;;;;7.68;1.10;;;9.60;99.90;;;;;;5023923;28;20018;-96
2022/11/06 06:02:54;;;;;;;7.20;0.85;;;9.70;99.90;;;;;;5045877;28;20036;-96
2022/11/06 06:05:19;;;;;;;6.53;1.00;;;9.70;99.90;;;;;;5042245;28;20049;-96
2022/11/06 06:07:45;;;;;;;6.03;1.40;;;9.70;99.90;;;;;;5039983;28;20030;-92
2022/11/06 06:10:11;;;;;;;6.18;1.10;;;9.70;99.90;;;;;;5023116;28;20064;-96
2022/11/06 06:12:38;;;;;;;7.03;0.90;;;9.70;99.90;;;;;;5023251;28;20022;-95
2022/11/06 06:15:05;;;;;;;4.85;1.10;;;9.80;99.90;;;;;;5023183;28;20044;-96
2022/11/06 06:17:30;;;;;;;5.50;1.10;;;9.80;99.90;;;;;;5024592;28;20040;-96
2022/11/06 06:19:56;;;;;;;6.82;0.95;;;9.80;99.90;;;;;;5031391;28;20049;-96
2022/11/06 06:22:22;;;;;;;6.72;1.02;;;9.80;99.90;;;;;;5028374;28;20026;-96
2022/11/06 06:24:47;;;;;;;8.55;1.23;;;9.80;99.90;;;;;;5036957;28;20063;-96
2022/11/06 06:27:13;;;;;;;7.85;1.10;;;9.90;99.90;;;;;;5026281;28;20056;-96
2022/11/06 06:29:39;;;;;;;6.60;0.90;;;9.90;99.90;;;;;;4998125;28;1250273;-87
2022/11/06 06:32:05;;;;;;;5.38;0.80;;;9.90;99.90;;;;;;5038924;28;20296;-96
2022/11/06 06:34:37;;;;;;;7.10;1.20;;;9.90;99.90;;;;;;5031650;28;20105;-96
2022/11/06 06:37:30;;;;;;;8.30;1.10;;;9.90;99.90;;;;;;5038904;28;20097;-87
2022/11/06 06:39:55;;;;;;;4.25;0.88;;;9.90;99.90;;;;;;5059750;22;20045;-75
2022/11/06 06:42:21;;;;;;;7.47;1.38;;;9.80;99.90;;;;;;5067697;28;20067;-75
2022/11/06 06:44:47;;;;;;;4.47;1.15;;;9.80;99.90;;;;;;5067076;28;20032;-75
2022/11/06 06:47:16;;;;;;;6.07;1.25;;;9.80;99.90;;;;;;5072359;28;20464;-75
2022/11/06 06:49:44;;;;;;;8.00;1.38;;;9.70;99.90;;;;;;5072526;28;20074;-75
2022/11/06 06:52:10;;;;;;;4.88;1.38;;;9.70;99.90;;;;;;5065796;28;20033;-75
2022/11/06 06:54:36;;;;;;;7.18;1.13;;;9.70;99.90;;;;;;5044592;28;20386;-75
2022/11/06 06:57:08;;;;;;;8.45;1.25;;;9.70;99.90;;;;;;5066436;28;20028;-74
2022/11/06 06:59:34;;;;;;;7.38;1.35;;;9.70;99.90;;;;;;5053159;28;20431;-74
2022/11/06 07:02:00;;;;;;;6.22;1.23;;;9.70;99.90;;;;;;5066380;28;20032;-74
2022/11/06 07:04:26;;;;;;;5.88;0.98;;;9.70;99.90;;;;;;5052812;28;20029;-74
2022/11/06 07:06:53;;;;;;;5.80;1.10;;;9.70;99.90;;;;;;5064370;28;20024;-74
2022/11/06 07:09:20;;;;;;;7.18;1.10;;;9.70;99.90;;;;;;5070676;28;20083;-75
2022/11/06 07:11:46;;;;;;;7.00;1.23;;;9.80;99.90;;;;;;5052141;28;20028;-74
2022/11/06 07:14:12;;;;;;;5.57;1.30;;;9.80;99.90;;;;;;5065572;28;20024;-75
2022/11/06 07:16:38;;;;;;;10.65;1.33;;;9.80;99.90;;;;;;5047737;28;20055;-75
2022/11/06 07:19:04;;;;;;;7.90;1.40;;;9.90;99.90;;;;;;5068688;28;20036;-75
2022/11/06 07:21:29;;;;;;;5.68;1.00;;;9.90;99.90;;;;;;5051237;28;20059;-75
2022/11/06 07:23:55;;;;;;;5.00;1.00;;;9.90;99.90;;;;;;5070008;28;20468;-74
2022/11/06 07:26:21;;;;;;;8.75;0.90;;;10.00;99.90;;;;;;5041238;28;20028;-76
2022/11/06 07:28:50;;;;;;;3.92;1.05;;;10.10;99.90;;;;;;5067662;28;20086;-74
2022/11/06 07:31:16;;;;;;;4.97;0.80;;;10.10;99.90;;;;;;5052475;28;20028;-75
2022/11/06 07:33:42;;;;;;;6.53;1.08;;;10.10;99.90;;;;;;5054189;28;20017;-74
2022/11/06 07:36:11;;;;;;;8.25;1.65;;;10.20;99.90;;;;;;5069153;28;20478;-74
2022/11/06 07:38:38;;;;;;;4.57;0.80;;;10.20;99.90;;;;;;5068897;28;20480;-75
2022/11/06 07:41:07;;;;;;;5.53;0.90;;;10.20;99.90;;;;;;5065203;28;20044;-73
2022/11/06 07:43:33;;;;;;;7.22;1.00;;;10.30;99.90;;;;;;5071215;28;20012;-75
2022/11/06 07:46:01;;;;;;;4.53;0.90;;;10.30;99.90;;;;;;5067412;28;20039;-74
2022/11/06 07:48:28;;;;;;;2.92;0.90;;;10.30;99.90;;;;;;5062646;28;20029;-75
2022/11/06 07:50:54;;;;;;;4.28;0.77;;;10.30;99.90;;;;;;5056775;28;20036;-75
2022/11/06 07:53:26;;;;;;;4.75;1.05;;;10.30;99.90;;;;;;5067576;28;20017;-76
2022/11/06 07:55:54;;;;;;;4.90;0.98;;;10.40;99.90;;;;;;5065904;28;20029;-75
2022/11/06 07:58:21;;;;;;;6.30;0.90;;;10.40;99.90;;;;;;5069961;28;20033;-76
2022/11/06 08:00:52;;;;;;;6.70;1.00;;;10.40;99.90;;;;;;5069323;28;20051;-75
2022/11/06 08:03:26;;;;;;;4.20;1.00;;;10.50;99.90;;;;;;5068136;28;20025;-77
2022/11/06 08:06:01;;;;;;;5.63;0.90;;;10.50;99.90;;;;;;5044480;28;20035;-75
2022/11/06 08:08:27;;;;;;;3.65;0.82;;;10.50;99.90;;;;;;5068920;28;20110;-75
2022/11/06 08:11:01;;;;;;;5.15;0.70;;;10.50;99.90;;;;;;5063677;28;20476;-74
2022/11/06 08:13:32;;;;;;;5.93;0.70;;;10.50;99.90;;;;;;5057599;28;20049;-76
2022/11/06 08:16:01;;;;;;;5.32;1.00;;;10.40;99.90;;;;;;5057865;28;20043;-77
2022/11/06 08:18:30;;;;;;;3.85;0.70;;;10.40;99.90;;;;;;5066073;28;20017;-74
2022/11/06 08:20:56;;;;;;;7.18;0.82;;;10.50;99.90;;;;;;5058546;28;20028;-76
2022/11/06 08:23:22;;;;;;;4.93;0.90;;;10.50;99.90;;;;;;5068582;28;20024;-76
2022/11/06 08:25:49;;;;;;;5.43;0.85;;;10.60;99.90;;;;;;5067091;28;20028;-74
2022/11/06 08:28:15;;;;;;;4.85;1.00;;;10.60;99.90;;;;;;5066255;28;20039;-74
2022/11/06 08:30:40;;;;;;;6.47;1.23;;;10.60;99.90;;;;;;5054884;28;20476;-75
2022/11/06 08:33:07;;;;;;;4.20;0.80;;;10.60;99.90;;;;;;5072244;28;20028;-75
2022/11/06 08:35:33;;;;;;;3.72;0.70;;;10.60;99.90;;;;;;5074410;28;20035;-76
2022/11/06 08:38:00;;;;;;;4.40;0.68;;;10.60;99.90;;;;;;5043668;28;20036;-75
2022/11/06 08:40:26;;;;;;;6.18;0.70;;;10.60;99.90;;;;;;5063326;28;20131;-75
2022/11/06 08:42:51;;;;;;;5.82;1.08;;;10.60;99.90;;;;;;5057790;28;20031;-75
2022/11/06 08:45:17;;;;;;;2.28;0.60;;;10.60;99.90;;;;;;5056082;28;20020;-76
2022/11/06 08:47:46;;;;;;;6.05;0.80;;;10.60;99.90;;;;;;5073885;28;20025;-74
2022/11/06 08:50:13;;;;;;;5.25;0.60;;;10.60;99.90;;;;;;5068758;28;20408;-77
2022/11/06 08:52:42;;;;;;;5.68;0.90;;;10.70;99.90;;;;;;5069206;28;20389;-75
2022/11/06 08:55:08;;;;;;;4.50;0.73;;;10.70;99.90;;;;;;5035898;28;20161;-76
2022/11/06 08:57:34;;;;;;;5.60;1.05;;;10.90;99.90;;;;;;5066700;28;20031;-75
2022/11/06 09:00:00;;;;;;;5.53;0.70;;;11.00;99.90;;;;;;5072620;28;20032;-76
2022/11/06 09:02:26;;;;;;;5.32;0.70;;;11.00;99.90;;;;;;5068557;28;20033;-76
2022/11/06 09:04:52;;;;;;;3.60;0.73;;;11.20;99.90;;;;;;5053788;28;20031;-76
2022/11/06 09:07:18;;;;;;;5.43;0.60;;;11.20;99.90;;;;;;5055856;28;20025;-76
2022/11/06 09:09:44;;;;;;;4.47;0.70;;;11.40;99.90;;;;;;5072227;28;20075;-76
2022/11/06 09:12:12;;;;;;;4.85;0.82;;;11.50;99.90;;;;;;5070443;28;20024;-75
2022/11/06 09:14:39;;;;;;;5.72;0.70;;;11.60;99.90;;;;;;5055840;28;20056;-76
2022/11/06 09:17:08;;;;;;;9.43;1.20;;;11.70;99.90;;;;;;5071995;28;20040;-76
2022/11/06 09:19:34;;;;;;;5.63;0.77;;;11.80;99.90;;;;;;5061197;28;20483;-76
2022/11/06 09:22:03;;;;;;;7.28;0.60;;;11.80;99.90;;;;;;5032366;28;20116;-76
2022/11/06 09:24:32;;;;;;;4.55;0.70;;;11.90;99.90;;;;;;5069345;28;20116;-78
2022/11/06 09:26:58;;;;;;;3.38;0.70;;;11.90;99.90;;;;;;5071121;28;20040;-76
2022/11/06 09:29:24;;;;;;;7.35;0.70;;;12.00;99.90;;;;;;5053521;28;20036;-76
2022/11/06 09:31:53;;;;;;;2.53;0.60;;;12.10;99.90;;;;;;5073310;28;20107;-76
2022/11/06 09:34:19;;;;;;;2.08;0.60;;;12.20;99.90;;;;;;5054734;28;20591;-76
2022/11/06 09:36:45;;;;;;;4.57;0.47;;;12.20;99.90;;;;;;5051811;28;20116;-76
2022/11/06 09:39:12;;;;;;;6.15;0.80;;;12.30;99.90;;;;;;5072611;28;20045;-74
2022/11/06 09:42:00;;;;;;;3.47;0.52;;;12.30;99.90;;;;;;5048625;28;20102;-77
2022/11/06 09:44:42;;;;;;;4.82;0.52;;;12.40;99.90;;;;;;5050072;28;20033;-77
2022/11/06 09:47:23;;;;;;;5.20;0.98;;;12.50;99.90;;;;;;5043860;28;20155;-76
2022/11/06 09:49:52;;;;;;;3.95;0.70;;;12.60;99.90;;;;;;5052290;28;20037;-75
2022/11/06 09:52:24;;;;;;;4.18;0.70;;;12.60;99.90;;;;;;5049567;28;20067;-74
2022/11/06 09:55:13;;;;;;;3.57;0.80;;;12.70;99.90;;;;;;5052098;28;20036;-75
2022/11/06 09:57:53;;;;;;;6.68;0.75;;;12.80;99.90;;;;;;5041681;28;20140;-76
2022/11/06 10:00:20;;;;;;;5.57;1.17;;;13.00;99.90;;;;;;5046639;28;20045;-76
2022/11/06 10:02:59;;;;;;;6.53;0.70;;;13.10;99.90;;;;;;5052054;28;20025;-77
2022/11/06 10:05:28;;;;;;;4.90;0.60;;;13.10;99.90;;;;;;5043043;28;20017;-75
2022/11/06 10:08:17;;;;;;;5.18;0.82;;;13.10;99.90;;;;;;5052520;28;20078;-76
2022/11/06 10:10:46;;;;;;;3.85;0.68;;;13.20;99.90;;;;;;5032917;28;20034;-76
2022/11/06 10:13:17;;;;;;;4.00;0.80;;;13.20;99.90;;;;;;5033303;28;20035;-75
2022/11/06 10:16:10;;;;;;;5.00;0.60;;;13.20;99.90;;;;;;5047352;28;20502;-76
2022/11/06 10:18:50;;;;;;;;;;;13.20;99.90;;;;;;5048530;28;20021;-76
2022/11/06 10:21:23;;;;;;;4.72;0.70;;;13.20;99.90;;;;;;5043054;28;20327;-74
2022/11/06 10:23:57;;;;;;;5.07;0.80;;;13.30;99.90;;;;;;5047648;28;20144;-75
2022/11/06 10:26:44;;;;;;;7.45;0.80;;;13.40;99.90;;;;;;5044432;28;20024;-76
2022/11/06 10:29:34;;;;;;;2.50;0.60;;;13.50;99.90;;;;;;5047314;28;20029;-76
2022/11/06 10:32:45;;;;;;;3.67;0.60;;;13.60;99.90;;;;;;5043742;28;20460;-74
2022/11/06 10:35:23;;;;;;;3.15;0.63;;;13.60;99.90;;;;;;5042930;28;20025;-76
2022/11/06 10:38:05;;;;;;;3.58;0.95;;;13.50;99.90;;;;;;5045710;28;20067;-74
2022/11/06 10:40:32;;;;;;;4.40;0.60;;;13.40;99.90;;;;;;5055282;28;20056;-75
2022/11/06 10:43:10;;;;;;;9.23;0.93;;;13.40;99.90;;;;;;5065474;28;20028;-75
2022/11/06 10:45:40;;;;;;;3.00;0.70;;;13.40;99.90;;;;;;5067923;28;20505;-76
2022/11/06 10:48:27;;;;;;;6.38;0.82;;;13.40;99.90;;;;;;5047087;28;20056;-75
2022/11/06 10:51:16;;;;;;;2.92;0.50;;;13.40;99.90;;;;;;5069021;28;20031;-75
2022/11/06 10:54:08;;;;;;;5.05;0.65;;;13.50;99.90;;;;;;5053656;28;20083;-77
2022/11/06 10:56:38;;;;;;;5.45;0.52;;;13.50;99.90;;;;;;5065726;28;20017;-75
2022/11/06 10:59:04;;;;;;;2.80;0.52;;;13.30;99.90;;;;;;5071692;28;20024;-76
2022/11/06 11:01:29;;;;;;;2.67;0.50;;;13.20;99.90;;;;;;5067860;28;20285;-76
2022/11/06 11:03:55;;;;;;;4.43;0.70;;;13.00;99.90;;;;;;5067961;28;20032;-75
2022/11/06 11:06:21;;;;;;;5.22;0.90;;;12.90;99.90;;;;;;5051422;28;20020;-75
2022/11/06 11:08:50;;;;;;;3.65;0.57;;;12.90;99.90;;;;;;5064765;28;20028;-74
2022/11/06 11:11:24;;;;;;;3.65;0.60;;;12.80;99.90;;;;;;5062813;28;20052;-74
2022/11/06 11:13:56;;;;;;;6.18;0.85;;;12.80;99.90;;;;;;5069176;28;20035;-74
2022/11/06 11:16:41;;;;;;;5.03;0.60;;;12.90;99.90;;;;;;5047004;28;20407;-74
2022/11/06 11:19:42;;;;;;;6.47;1.15;;;12.90;99.90;;;;;;5065598;28;20046;-75
2022/11/06 11:22:23;;;;;;;5.55;0.50;;;13.00;99.90;;;;;;5061980;28;20028;-74
2022/11/06 11:25:07;;;;;;;3.80;0.50;;;13.00;99.90;;;;;;5068451;28;20040;-76
2022/11/06 11:27:43;;;;;;;3.70;0.50;;;13.10;99.90;;;;;;5070416;28;20444;-75
2022/11/06 11:30:25;;;;;;;4.38;0.50;;;13.20;99.90;;;;;;5068783;28;20573;-74
2022/11/06 11:32:56;;;;;;;3.97;0.50;;;13.20;99.90;;;;;;5055520;28;20103;-75
2022/11/06 11:35:28;;;;;;;3.47;0.43;;;13.30;99.90;;;;;;5063486;28;20021;-74
2022/11/06 11:38:06;;;;;;;3.22;0.50;;;13.40;99.90;;;;;;5067824;28;20029;-74
2022/11/06 11:40:37;;;;;;;5.25;0.40;;;13.60;99.90;;;;;;5053385;28;20040;-74
2022/11/06 11:43:34;;;;;;;3.67;0.50;;;13.70;99.90;;;;;;5065258;28;20794;-74
2022/11/06 11:46:08;;;;;;;5.70;0.35;;;13.90;99.90;;;;;;5006634;28;20103;-74
2022/11/06 11:48:46;;;;;;;3.55;0.47;;;14.00;99.90;;;;;;5064370;28;20053;-75
2022/11/06 11:51:24;;;;;;;5.47;0.43;;;14.00;99.90;;;;;;5044710;28;20047;-74
2022/11/06 11:53:52;;;;;;;7.05;0.50;;;13.90;99.90;;;;;;5064955;28;20012;-76
2022/11/06 11:56:20;;;;;;;2.83;0.30;;;13.80;99.90;;;;;;5061499;28;20029;-75
2022/11/06 11:58:52;;;;;;;3.63;0.30;;;13.80;99.90;;;;;;5049708;28;20021;-75
2022/11/06 12:01:29;;;;;;;4.85;0.30;;;13.80;99.90;;;;;;5053764;28;20035;-75
2022/11/06 12:03:54;;;;;;;2.38;0.30;;;13.70;99.90;;;;;;5066343;28;20025;-75
2022/11/06 12:06:20;;;;;;;3.75;0.70;;;13.80;99.90;;;;;;5072305;28;20035;-75
2022/11/06 12:08:51;;;;;;;3.72;0.50;;;13.70;99.90;;;;;;5074994;28;20103;-75
2022/11/06 12:11:23;;;;;;;5.15;0.50;;;13.60;99.90;;;;;;5049489;28;20128;-75
2022/11/06 12:14:38;;;;;;;7.45;0.50;;;13.60;99.90;;;;;;5066760;28;20460;-75
2022/11/06 12:17:19;;;;;;;3.22;0.40;;;13.50;99.90;;;;;;5056744;28;20595;-75
2022/11/06 12:19:53;;;;;;;3.53;0.40;;;13.40;99.90;;;;;;5071613;28;20021;-75
2022/11/06 12:22:32;;;;;;;4.05;0.40;;;13.30;99.90;;;;;;5062168;28;20032;-75
2022/11/06 12:25:02;;;;;;;5.32;0.40;;;13.30;99.90;;;;;;5062869;28;20036;-75
2022/11/06 12:27:35;;;;;;;2.58;0.40;;;13.20;99.90;;;;;;5061200;28;20563;-75
2022/11/06 12:30:12;;;;;;;2.25;0.30;;;13.20;99.90;;;;;;5062570;28;20044;-75
2022/11/06 12:33:02;;;;;;;4.13;0.60;;;13.20;99.90;;;;;;5064769;28;20029;-75
2022/11/06 12:35:40;;;;;;;3.35;0.30;;;13.20;99.90;;;;;;5061408;28;20640;-74
2022/11/06 12:38:36;;;;;;;4.63;0.30;;;13.10;99.90;;;;;;5064519;28;20032;-74
2022/11/06 12:41:12;;;;;;;5.10;0.30;;;13.10;99.90;;;;;;5063115;28;20045;-74
2022/11/06 12:43:48;;;;;;;2.83;0.38;;;13.00;99.90;;;;;;5064512;28;20025;-74
2022/11/06 12:46:23;;;;;;;4.63;0.40;;;13.10;99.90;;;;;;5065948;28;20028;-74
2022/11/06 12:49:19;;;;;;;4.85;0.40;;;13.00;99.90;;;;;;5063168;28;20036;-74
2022/11/06 12:52:06;;;;;;;3.42;0.32;;;13.00;99.90;;;;;;5066315;28;20051;-74
2022/11/06 12:54:32;;;;;;;7.28;0.50;;;13.00;99.90;;;;;;5059846;28;20024;-74
2022/11/06 12:57:18;;;;;;;3.90;0.32;;;13.00;99.90;;;;;;5066343;28;20033;-74
2022/11/06 13:00:12;;;;;;;13.25;1.02;;;13.10;99.90;;;;;;5058401;28;20464;-75
2022/11/06 13:03:08;;;;;;;3.15;0.40;;;13.10;99.90;;;;;;5061834;28;20111;-75
2022/11/06 13:05:54;;;;;;;3.55;0.35;;;13.10;99.90;;;;;;5069488;28;20040;-75
2022/11/06 13:08:39;;;;;;;2.20;0.30;;;13.10;99.90;;;;;;5052140;28;20067;-75
2022/11/06 13:11:18;;;;;;;2.33;0.50;;;13.10;99.90;;;;;;5053978;28;20041;-75
2022/11/06 13:14:05;;;;;;;3.60;0.30;;;13.00;99.90;;;;;;5063867;28;20047;-75
2022/11/06 13:16:52;;;;;;;5.22;0.30;;;13.00;99.90;;;;;;5072674;28;20024;-75
2022/11/06 13:19:38;;;;;;;3.53;0.30;;;13.00;99.90;;;;;;5073481;28;20464;-75
2022/11/06 13:22:22;;;;;;;2.45;0.40;;;13.00;99.90;;;;;;5068305;28;20024;-75
2022/11/06 13:25:06;;;;;;;2.83;0.43;;;12.90;99.90;;;;;;5066161;28;20419;-75
2022/11/06 13:28:14;;;;;;;5.20;0.57;;;13.00;99.90;;;;;;5063386;28;20035;-75
2022/11/06 13:30:40;;;;;;;3.50;0.30;;;13.00;99.90;;;;;;5056922;28;20056;-75
2022/11/06 13:33:20;;;;;;;2.38;0.30;;;12.90;99.90;;;;;;5059971;28;20668;-75
2022/11/06 13:35:46;;;;;;;1.75;0.30;;;12.90;99.90;;;;;;5063173;28;20102;-74
2022/11/06 13:38:16;;;;;;;4.05;0.30;;;12.90;99.90;;;;;;5070026;28;20024;-74